sensor_id;sensor_type;location;lat;lon;timestamp;P1;durP1;ratioP1;P2;durP2;ratioP2
10491;SDS011;5293;51.464;-2.566;2022-11-12T00:00:01;5.87;;;2.80;;
10491;SDS011;5293;51.464;-2.566;2022-11-12T00:02:26;7.27;;;2.67;;
10491;SDS011;5293;51.464;-2.566;2022-11-12T00:04:52;7.87;;;3.20;;
10491;SDS011;5293;51.464;-2.566;2022-11-12T00:07:18;5.83;;;2.70;;
10491;SDS011;5293;51.464;-2.566;2022-11-12T00:09:43;4.80;;;2.87;;
10491;SDS011;5293;51.464;-2.566;2022-11-12T00:12:09;4.40;;;2.90;;
10491;SDS011;5293;51.464;-2.566;2022-11-12T00:14:34;5.87;;;3.27;;
10491;SDS011;5293;51.464;-2.566;2022-11-12T00:17:00;6.60;;;3.00;;
10491;SDS011;5293;51.464;-2.566;2022-11-12T00:19:26;10.83;;;2.90;;
10491;SDS011;5293;51.464;-2.566;2022-11-12T00:21:51;5.70;;;2.77;;
10491;SDS011;5293;51.464;-2.566;2022-11-12T00:24:17;5.87;;;2.67;;
10491;SDS011;5293;51.464;-2.566;2022-11-12T00:26:45;5.60;;;2.90;;
10491;SDS011;5293;51.464;-2.566;2022-11-12T00:29:10;6.47;;;2.90;;
10491;SDS011;5293;51.464;-2.566;2022-11-12T00:31:36;6.53;;;3.20;;
10491;SDS011;5293;51.464;-2.566;2022-11-12T00:34:02;6.27;;;3.40;;
10491;SDS011;5293;51.464;-2.566;2022-11-12T00:36:27;7.57;;;3.50;;
10491;SDS011;5293;51.464;-2.566;2022-11-12T00:38:53;8.10;;;3.50;;
10491;SDS011;5293;51.464;-2.566;2022-11-12T00:41:18;8.30;;;3.57;;
10491;SDS011;5293;51.464;-2.566;2022-11-12T00:43:44;14.13;;;3.57;;
10491;SDS011;5293;51.464;-2.566;2022-11-12T00:46:10;6.77;;;3.13;;
10491;SDS011;5293;51.464;-2.566;2022-11-12T00:48:36;7.67;;;3.27;;
10491;SDS011;5293;51.464;-2.566;2022-11-12T00:51:02;9.53;;;3.13;;
10491;SDS011;5293;51.464;-2.566;2022-11-12T00:53:29;9.67;;;3.43;;
10491;SDS011;5293;51.464;-2.566;2022-11-12T00:56:01;6.87;;;3.40;;
10491;SDS011;5293;51.464;-2.566;2022-11-12T00:58:29;8.07;;;3.63;;
10491;SDS011;5293;51.464;-2.566;2022-11-12T01:00:56;6.30;;;3.43;;
10491;SDS011;5293;51.464;-2.566;2022-11-12T01:03:22;6.70;;;3.13;;
10491;SDS011;5293;51.464;-2.566;2022-11-12T01:05:48;7.80;;;3.53;;
10491;SDS011;5293;51.464;-2.566;2022-11-12T01:08:14;7.23;;;3.10;;
10491;SDS011;5293;51.464;-2.566;2022-11-12T01:10:39;7.20;;;3.10;;
10491;SDS011;5293;51.464;-2.566;2022-11-12T01:13:05;7.53;;;3.37;;
10491;SDS011;5293;51.464;-2.566;2022-11-12T01:15:31;11.77;;;3.97;;
10491;SDS011;5293;51.464;-2.566;2022-11-12T01:17:56;6.40;;;3.57;;
10491;SDS011;5293;51.464;-2.566;2022-11-12T01:20:22;3.93;;;3.07;;
10491;SDS011;5293;51.464;-2.566;2022-11-12T01:22:47;9.07;;;3.87;;
10491;SDS011;5293;51.464;-2.566;2022-11-12T01:25:13;7.33;;;3.40;;
10491;SDS011;5293;51.464;-2.566;2022-11-12T01:27:39;9.53;;;4.67;;
10491;SDS011;5293;51.464;-2.566;2022-11-12T01:30:04;17.07;;;7.83;;
10491;SDS011;5293;51.464;-2.566;2022-11-12T01:32:33;13.10;;;5.93;;
10491;SDS011;5293;51.464;-2.566;2022-11-12T01:35:00;7.33;;;3.60;;
10491;SDS011;5293;51.464;-2.566;2022-11-12T01:37:25;7.63;;;3.17;;
10491;SDS011;5293;51.464;-2.566;2022-11-12T01:39:51;4.43;;;3.53;;
10491;SDS011;5293;51.464;-2.566;2022-11-12T01:42:17;6.80;;;3.57;;
10491;SDS011;5293;51.464;-2.566;2022-11-12T01:44:43;8.70;;;3.37;;
10491;SDS011;5293;51.464;-2.566;2022-11-12T01:47:12;4.73;;;2.90;;
10491;SDS011;5293;51.464;-2.566;2022-11-12T01:49:46;8.50;;;3.43;;
10491;SDS011;5293;51.464;-2.566;2022-11-12T01:52:23;4.83;;;2.80;;
10491;SDS011;5293;51.464;-2.566;2022-11-12T01:55:10;4.47;;;2.70;;
10491;SDS011;5293;51.464;-2.566;2022-11-12T01:57:59;11.67;;;3.30;;
10491;SDS011;5293;51.464;-2.566;2022-11-12T02:00:35;3.53;;;2.70;;
10491;SDS011;5293;51.464;-2.566;2022-11-12T02:03:01;5.60;;;2.93;;
10491;SDS011;5293;51.464;-2.566;2022-11-12T02:05:34;7.77;;;3.53;;
10491;SDS011;5293;51.464;-2.566;2022-11-12T02:08:02;6.20;;;3.23;;
10491;SDS011;5293;51.464;-2.566;2022-11-12T02:10:31;5.07;;;3.20;;
10491;SDS011;5293;51.464;-2.566;2022-11-12T02:12:58;12.53;;;3.60;;
10491;SDS011;5293;51.464;-2.566;2022-11-12T02:15:44;7.47;;;3.47;;
10491;SDS011;5293;51.464;-2.566;2022-11-12T02:18:09;6.77;;;3.20;;
10491;SDS011;5293;51.464;-2.566;2022-11-12T02:20:35;10.33;;;2.97;;
10491;SDS011;5293;51.464;-2.566;2022-11-12T02:23:03;7.07;;;3.20;;
10491;SDS011;5293;51.464;-2.566;2022-11-12T02:25:30;7.97;;;3.03;;
10491;SDS011;5293;51.464;-2.566;2022-11-12T02:27:57;7.33;;;3.00;;
10491;SDS011;5293;51.464;-2.566;2022-11-12T02:30:35;5.60;;;2.80;;
10491;SDS011;5293;51.464;-2.566;2022-11-12T02:33:01;4.23;;;3.17;;
10491;SDS011;5293;51.464;-2.566;2022-11-12T02:35:27;4.30;;;2.47;;
10491;SDS011;5293;51.464;-2.566;2022-11-12T02:37:53;5.37;;;3.03;;
10491;SDS011;5293;51.464;-2.566;2022-11-12T02:40:19;10.27;;;3.00;;
10491;SDS011;5293;51.464;-2.566;2022-11-12T02:42:45;8.87;;;3.10;;
10491;SDS011;5293;51.464;-2.566;2022-11-12T02:45:11;5.37;;;2.77;;
10491;SDS011;5293;51.464;-2.566;2022-11-12T02:47:37;8.43;;;3.20;;
10491;SDS011;5293;51.464;-2.566;2022-11-12T02:50:03;2.93;;;2.50;;
10491;SDS011;5293;51.464;-2.566;2022-11-12T02:52:29;7.17;;;2.93;;
10491;SDS011;5293;51.464;-2.566;2022-11-12T02:54:56;6.97;;;2.80;;
10491;SDS011;5293;51.464;-2.566;2022-11-12T02:57:22;7.00;;;2.83;;
10491;SDS011;5293;51.464;-2.566;2022-11-12T02:59:48;9.53;;;3.30;;
10491;SDS011;5293;51.464;-2.566;2022-11-12T03:02:14;8.77;;;3.30;;
10491;SDS011;5293;51.464;-2.566;2022-11-12T03:04:39;3.37;;;2.47;;
10491;SDS011;5293;51.464;-2.566;2022-11-12T03:07:05;4.93;;;2.87;;
10491;SDS011;5293;51.464;-2.566;2022-11-12T03:09:31;8.77;;;2.73;;
10491;SDS011;5293;51.464;-2.566;2022-11-12T03:11:56;4.17;;;3.13;;
10491;SDS011;5293;51.464;-2.566;2022-11-12T03:14:22;6.33;;;3.27;;
10491;SDS011;5293;51.464;-2.566;2022-11-12T03:16:48;5.63;;;3.53;;
10491;SDS011;5293;51.464;-2.566;2022-11-12T03:19:13;7.67;;;3.00;;
10491;SDS011;5293;51.464;-2.566;2022-11-12T03:21:39;4.77;;;2.73;;
10491;SDS011;5293;51.464;-2.566;2022-11-12T03:24:04;5.20;;;3.23;;
10491;SDS011;5293;51.464;-2.566;2022-11-12T03:26:30;6.00;;;3.80;;
10491;SDS011;5293;51.464;-2.566;2022-11-12T03:28:56;5.37;;;2.57;;
10491;SDS011;5293;51.464;-2.566;2022-11-12T03:31:22;9.07;;;2.63;;
10491;SDS011;5293;51.464;-2.566;2022-11-12T03:33:47;6.07;;;2.90;;
10491;SDS011;5293;51.464;-2.566;2022-11-12T03:36:13;8.57;;;2.97;;
10491;SDS011;5293;51.464;-2.566;2022-11-12T03:38:39;9.63;;;3.50;;
10491;SDS011;5293;51.464;-2.566;2022-11-12T03:41:04;3.13;;;2.60;;
10491;SDS011;5293;51.464;-2.566;2022-11-12T03:43:30;8.13;;;3.10;;
10491;SDS011;5293;51.464;-2.566;2022-11-12T03:45:56;8.70;;;3.33;;
10491;SDS011;5293;51.464;-2.566;2022-11-12T03:48:21;4.93;;;3.03;;
10491;SDS011;5293;51.464;-2.566;2022-11-12T03:50:47;3.13;;;2.53;;
10491;SDS011;5293;51.464;-2.566;2022-11-12T03:53:13;4.47;;;3.17;;
10491;SDS011;5293;51.464;-2.566;2022-11-12T03:55:39;6.47;;;2.60;;
10491;SDS011;5293;51.464;-2.566;2022-11-12T03:58:04;4.90;;;2.93;;
10491;SDS011;5293;51.464;-2.566;2022-11-12T04:00:30;3.37;;;2.63;;
10491;SDS011;5293;51.464;-2.566;2022-11-12T04:02:56;4.70;;;2.40;;
10491;SDS011;5293;51.464;-2.566;2022-11-12T04:05:22;7.43;;;2.57;;
10491;SDS011;5293;51.464;-2.566;2022-11-12T04:08:26;6.43;;;3.20;;
10491;SDS011;5293;51.464;-2.566;2022-11-12T04:11:01;7.47;;;3.20;;
10491;SDS011;5293;51.464;-2.566;2022-11-12T04:13:28;6.10;;;3.30;;
10491;SDS011;5293;51.464;-2.566;2022-11-12T04:18:47;8.33;;;3.00;;
10491;SDS011;5293;51.464;-2.566;2022-11-12T04:21:39;5.67;;;2.70;;
10491;SDS011;5293;51.464;-2.566;2022-11-12T04:24:17;5.00;;;3.47;;
10491;SDS011;5293;51.464;-2.566;2022-11-12T04:27:12;5.47;;;2.90;;
10491;SDS011;5293;51.464;-2.566;2022-11-12T04:29:46;3.83;;;2.80;;
10491;SDS011;5293;51.464;-2.566;2022-11-12T04:32:32;5.73;;;2.77;;
10491;SDS011;5293;51.464;-2.566;2022-11-12T04:35:00;7.03;;;3.17;;
10491;SDS011;5293;51.464;-2.566;2022-11-12T04:37:27;6.83;;;3.10;;
10491;SDS011;5293;51.464;-2.566;2022-11-12T04:39:54;6.37;;;3.30;;
10491;SDS011;5293;51.464;-2.566;2022-11-12T04:42:39;10.53;;;3.30;;
10491;SDS011;5293;51.464;-2.566;2022-11-12T04:45:41;5.53;;;3.40;;
10491;SDS011;5293;51.464;-2.566;2022-11-12T04:48:09;4.00;;;3.33;;
10491;SDS011;5293;51.464;-2.566;2022-11-12T04:50:34;7.83;;;4.00;;
10491;SDS011;5293;51.464;-2.566;2022-11-12T04:53:01;9.70;;;3.50;;
10491;SDS011;5293;51.464;-2.566;2022-11-12T04:55:27;7.80;;;4.13;;
10491;SDS011;5293;51.464;-2.566;2022-11-12T04:57:52;9.63;;;3.90;;
10491;SDS011;5293;51.464;-2.566;2022-11-12T05:00:18;6.97;;;3.87;;
10491;SDS011;5293;51.464;-2.566;2022-11-12T05:02:44;5.10;;;3.93;;
10491;SDS011;5293;51.464;-2.566;2022-11-12T05:05:09;7.50;;;4.17;;
10491;SDS011;5293;51.464;-2.566;2022-11-12T05:07:35;6.43;;;4.23;;
10491;SDS011;5293;51.464;-2.566;2022-11-12T05:10:01;7.20;;;4.20;;
10491;SDS011;5293;51.464;-2.566;2022-11-12T05:12:26;7.43;;;4.10;;
10491;SDS011;5293;51.464;-2.566;2022-11-12T05:14:52;6.13;;;4.37;;
10491;SDS011;5293;51.464;-2.566;2022-11-12T05:17:18;6.10;;;4.47;;
10491;SDS011;5293;51.464;-2.566;2022-11-12T05:19:43;7.47;;;4.20;;
10491;SDS011;5293;51.464;-2.566;2022-11-12T05:22:09;7.60;;;4.10;;
10491;SDS011;5293;51.464;-2.566;2022-11-12T05:24:36;7.23;;;4.37;;
10491;SDS011;5293;51.464;-2.566;2022-11-12T05:27:05;8.37;;;4.23;;
10491;SDS011;5293;51.464;-2.566;2022-11-12T05:29:34;8.40;;;4.00;;
10491;SDS011;5293;51.464;-2.566;2022-11-12T05:31:59;8.40;;;4.90;;
10491;SDS011;5293;51.464;-2.566;2022-11-12T05:34:25;8.53;;;4.43;;
10491;SDS011;5293;51.464;-2.566;2022-11-12T05:36:51;9.30;;;4.13;;
10491;SDS011;5293;51.464;-2.566;2022-11-12T05:39:17;6.37;;;4.30;;
10491;SDS011;5293;51.464;-2.566;2022-11-12T05:41:42;6.77;;;4.37;;
10491;SDS011;5293;51.464;-2.566;2022-11-12T05:44:08;8.60;;;4.70;;
10491;SDS011;5293;51.464;-2.566;2022-11-12T05:46:34;5.60;;;4.30;;
10491;SDS011;5293;51.464;-2.566;2022-11-12T05:49:00;8.63;;;5.17;;
10491;SDS011;5293;51.464;-2.566;2022-11-12T05:51:25;7.00;;;5.13;;
10491;SDS011;5293;51.464;-2.566;2022-11-12T05:53:51;10.20;;;5.33;;
10491;SDS011;5293;51.464;-2.566;2022-11-12T05:56:17;10.23;;;5.43;;
10491;SDS011;5293;51.464;-2.566;2022-11-12T05:58:42;6.73;;;5.00;;
10491;SDS011;5293;51.464;-2.566;2022-11-12T06:01:08;9.07;;;5.57;;
10491;SDS011;5293;51.464;-2.566;2022-11-12T06:03:34;9.13;;;4.70;;
10491;SDS011;5293;51.464;-2.566;2022-11-12T06:05:59;10.07;;;4.93;;
10491;SDS011;5293;51.464;-2.566;2022-11-12T06:08:25;7.93;;;5.40;;
10491;SDS011;5293;51.464;-2.566;2022-11-12T06:10:51;8.77;;;5.40;;
10491;SDS011;5293;51.464;-2.566;2022-11-12T06:13:18;10.73;;;5.47;;
10491;SDS011;5293;51.464;-2.566;2022-11-12T06:15:44;9.73;;;5.10;;
10491;SDS011;5293;51.464;-2.566;2022-11-12T06:18:10;8.80;;;5.20;;
10491;SDS011;5293;51.464;-2.566;2022-11-12T06:20:36;6.93;;;5.20;;
10491;SDS011;5293;51.464;-2.566;2022-11-12T06:23:02;9.13;;;5.47;;
10491;SDS011;5293;51.464;-2.566;2022-11-12T06:25:27;9.00;;;5.20;;
10491;SDS011;5293;51.464;-2.566;2022-11-12T06:27:53;7.63;;;5.23;;
10491;SDS011;5293;51.464;-2.566;2022-11-12T06:30:19;7.87;;;4.80;;
10491;SDS011;5293;51.464;-2.566;2022-11-12T06:32:45;9.60;;;5.73;;
10491;SDS011;5293;51.464;-2.566;2022-11-12T06:35:12;10.23;;;5.80;;
10491;SDS011;5293;51.464;-2.566;2022-11-12T06:37:37;7.73;;;4.83;;
10491;SDS011;5293;51.464;-2.566;2022-11-12T06:40:03;7.57;;;5.33;;
10491;SDS011;5293;51.464;-2.566;2022-11-12T06:42:29;8.80;;;5.33;;
10491;SDS011;5293;51.464;-2.566;2022-11-12T06:44:55;6.93;;;5.10;;
10491;SDS011;5293;51.464;-2.566;2022-11-12T06:47:20;11.67;;;5.73;;
10491;SDS011;5293;51.464;-2.566;2022-11-12T06:49:46;9.13;;;5.57;;
10491;SDS011;5293;51.464;-2.566;2022-11-12T06:52:12;11.50;;;6.07;;
10491;SDS011;5293;51.464;-2.566;2022-11-12T06:54:39;15.03;;;6.37;;
10491;SDS011;5293;51.464;-2.566;2022-11-12T06:57:05;8.93;;;6.07;;
10491;SDS011;5293;51.464;-2.566;2022-11-12T06:59:31;7.83;;;5.53;;
10491;SDS011;5293;51.464;-2.566;2022-11-12T07:01:56;10.27;;;5.70;;
10491;SDS011;5293;51.464;-2.566;2022-11-12T07:04:25;10.53;;;6.20;;
10491;SDS011;5293;51.464;-2.566;2022-11-12T07:06:50;8.63;;;5.80;;
10491;SDS011;5293;51.464;-2.566;2022-11-12T07:09:16;10.80;;;6.13;;
10491;SDS011;5293;51.464;-2.566;2022-11-12T07:11:42;11.43;;;6.30;;
10491;SDS011;5293;51.464;-2.566;2022-11-12T07:14:07;11.23;;;5.70;;
10491;SDS011;5293;51.464;-2.566;2022-11-12T07:16:34;8.37;;;5.63;;
10491;SDS011;5293;51.464;-2.566;2022-11-12T07:19:00;10.30;;;6.17;;
10491;SDS011;5293;51.464;-2.566;2022-11-12T07:21:26;8.33;;;6.10;;
10491;SDS011;5293;51.464;-2.566;2022-11-12T07:23:51;12.40;;;6.70;;
10491;SDS011;5293;51.464;-2.566;2022-11-12T07:26:22;11.13;;;6.60;;
10491;SDS011;5293;51.464;-2.566;2022-11-12T07:28:49;12.77;;;7.10;;
10491;SDS011;5293;51.464;-2.566;2022-11-12T07:31:16;9.80;;;6.63;;
10491;SDS011;5293;51.464;-2.566;2022-11-12T07:33:44;13.20;;;6.80;;
10491;SDS011;5293;51.464;-2.566;2022-11-12T07:36:11;12.20;;;7.70;;
10491;SDS011;5293;51.464;-2.566;2022-11-12T07:38:39;11.90;;;7.20;;
10491;SDS011;5293;51.464;-2.566;2022-11-12T07:43:38;11.50;;;7.37;;
10491;SDS011;5293;51.464;-2.566;2022-11-12T07:46:06;13.10;;;7.50;;
10491;SDS011;5293;51.464;-2.566;2022-11-12T07:48:42;10.17;;;7.93;;
10491;SDS011;5293;51.464;-2.566;2022-11-12T07:51:12;14.17;;;7.77;;
10491;SDS011;5293;51.464;-2.566;2022-11-12T07:53:40;19.77;;;8.13;;
10491;SDS011;5293;51.464;-2.566;2022-11-12T07:56:06;12.17;;;7.83;;
10491;SDS011;5293;51.464;-2.566;2022-11-12T07:58:34;10.40;;;8.40;;
10491;SDS011;5293;51.464;-2.566;2022-11-12T08:01:06;13.30;;;8.00;;
10491;SDS011;5293;51.464;-2.566;2022-11-12T08:03:47;12.70;;;8.40;;
10491;SDS011;5293;51.464;-2.566;2022-11-12T08:06:13;12.20;;;8.30;;
10491;SDS011;5293;51.464;-2.566;2022-11-12T08:08:38;11.20;;;8.70;;
10491;SDS011;5293;51.464;-2.566;2022-11-12T08:11:04;12.27;;;8.57;;
10491;SDS011;5293;51.464;-2.566;2022-11-12T08:13:29;10.63;;;8.10;;
10491;SDS011;5293;51.464;-2.566;2022-11-12T08:15:56;12.90;;;7.97;;
10491;SDS011;5293;51.464;-2.566;2022-11-12T08:18:22;13.57;;;7.93;;
10491;SDS011;5293;51.464;-2.566;2022-11-12T08:20:48;9.53;;;8.07;;
10491;SDS011;5293;51.464;-2.566;2022-11-12T08:23:14;12.93;;;8.83;;
10491;SDS011;5293;51.464;-2.566;2022-11-12T08:25:39;11.53;;;8.80;;
10491;SDS011;5293;51.464;-2.566;2022-11-12T08:28:05;13.07;;;8.77;;
10491;SDS011;5293;51.464;-2.566;2022-11-12T08:30:31;17.60;;;9.13;;
10491;SDS011;5293;51.464;-2.566;2022-11-12T08:33:03;15.17;;;9.03;;
10491;SDS011;5293;51.464;-2.566;2022-11-12T08:35:29;14.60;;;8.70;;
10491;SDS011;5293;51.464;-2.566;2022-11-12T08:38:03;11.70;;;8.70;;
10491;SDS011;5293;51.464;-2.566;2022-11-12T08:40:32;11.97;;;8.73;;
10491;SDS011;5293;51.464;-2.566;2022-11-12T08:43:07;12.90;;;8.73;;
10491;SDS011;5293;51.464;-2.566;2022-11-12T08:45:37;12.83;;;8.33;;
10491;SDS011;5293;51.464;-2.566;2022-11-12T08:48:05;11.27;;;8.33;;
10491;SDS011;5293;51.464;-2.566;2022-11-12T08:50:35;15.50;;;8.97;;
10491;SDS011;5293;51.464;-2.566;2022-11-12T08:53:05;10.90;;;8.63;;
10491;SDS011;5293;51.464;-2.566;2022-11-12T08:55:33;12.87;;;8.53;;
10491;SDS011;5293;51.464;-2.566;2022-11-12T08:58:00;10.63;;;8.20;;
10491;SDS011;5293;51.464;-2.566;2022-11-12T09:00:33;11.90;;;8.90;;
10491;SDS011;5293;51.464;-2.566;2022-11-12T09:03:01;12.90;;;8.77;;
10491;SDS011;5293;51.464;-2.566;2022-11-12T09:05:27;12.33;;;8.10;;
10491;SDS011;5293;51.464;-2.566;2022-11-12T09:07:57;13.17;;;8.50;;
10491;SDS011;5293;51.464;-2.566;2022-11-12T09:10:24;14.33;;;9.07;;
10491;SDS011;5293;51.464;-2.566;2022-11-12T09:12:50;11.17;;;8.60;;
10491;SDS011;5293;51.464;-2.566;2022-11-12T09:15:16;15.47;;;8.87;;
10491;SDS011;5293;51.464;-2.566;2022-11-12T09:17:42;14.40;;;8.20;;
10491;SDS011;5293;51.464;-2.566;2022-11-12T09:20:08;12.80;;;8.77;;
10491;SDS011;5293;51.464;-2.566;2022-11-12T09:22:34;13.07;;;8.47;;
10491;SDS011;5293;51.464;-2.566;2022-11-12T09:24:59;15.00;;;8.53;;
10491;SDS011;5293;51.464;-2.566;2022-11-12T09:27:25;14.47;;;9.33;;
10491;SDS011;5293;51.464;-2.566;2022-11-12T09:29:51;13.33;;;8.83;;
10491;SDS011;5293;51.464;-2.566;2022-11-12T09:32:17;14.63;;;8.87;;
10491;SDS011;5293;51.464;-2.566;2022-11-12T09:34:43;11.27;;;8.93;;
10491;SDS011;5293;51.464;-2.566;2022-11-12T09:37:09;11.53;;;8.83;;
10491;SDS011;5293;51.464;-2.566;2022-11-12T09:39:34;11.47;;;8.80;;
10491;SDS011;5293;51.464;-2.566;2022-11-12T09:42:05;13.47;;;8.53;;
10491;SDS011;5293;51.464;-2.566;2022-11-12T09:44:37;14.03;;;8.87;;
10491;SDS011;5293;51.464;-2.566;2022-11-12T09:47:13;14.73;;;9.93;;
10491;SDS011;5293;51.464;-2.566;2022-11-12T09:49:49;12.77;;;8.77;;
10491;SDS011;5293;51.464;-2.566;2022-11-12T09:52:26;12.67;;;10.17;;
10491;SDS011;5293;51.464;-2.566;2022-11-12T09:54:56;18.10;;;11.23;;
10491;SDS011;5293;51.464;-2.566;2022-11-12T09:57:39;12.33;;;9.83;;
10491;SDS011;5293;51.464;-2.566;2022-11-12T10:00:17;14.50;;;10.27;;
10491;SDS011;5293;51.464;-2.566;2022-11-12T10:06:07;17.10;;;12.63;;
10491;SDS011;5293;51.464;-2.566;2022-11-12T10:08:44;18.93;;;12.23;;
10491;SDS011;5293;51.464;-2.566;2022-11-12T10:14:30;14.27;;;10.23;;
10491;SDS011;5293;51.464;-2.566;2022-11-12T10:17:06;12.37;;;9.70;;
10491;SDS011;5293;51.464;-2.566;2022-11-12T10:25:24;14.27;;;8.97;;
10491;SDS011;5293;51.464;-2.566;2022-11-12T10:27:50;10.30;;;8.40;;
10491;SDS011;5293;51.464;-2.566;2022-11-12T10:30:20;13.07;;;9.30;;
10491;SDS011;5293;51.464;-2.566;2022-11-12T10:32:50;14.07;;;8.70;;
10491;SDS011;5293;51.464;-2.566;2022-11-12T10:35:18;15.47;;;9.63;;
10491;SDS011;5293;51.464;-2.566;2022-11-12T10:43:32;11.40;;;8.70;;
10491;SDS011;5293;51.464;-2.566;2022-11-12T10:45:42;13.27;;;8.90;;
10491;SDS011;5293;51.464;-2.566;2022-11-12T10:48:24;13.47;;;7.53;;
10491;SDS011;5293;51.464;-2.566;2022-11-12T10:50:58;11.20;;;7.70;;
10491;SDS011;5293;51.464;-2.566;2022-11-12T10:53:42;9.83;;;7.33;;
10491;SDS011;5293;51.464;-2.566;2022-11-12T10:59:09;11.47;;;8.33;;
10491;SDS011;5293;51.464;-2.566;2022-11-12T11:01:45;9.97;;;7.57;;
10491;SDS011;5293;51.464;-2.566;2022-11-12T11:07:14;9.83;;;6.73;;
10491;SDS011;5293;51.464;-2.566;2022-11-12T11:09:55;8.20;;;6.60;;
10491;SDS011;5293;51.464;-2.566;2022-11-12T11:12:25;9.20;;;6.37;;
10491;SDS011;5293;51.464;-2.566;2022-11-12T11:15:06;18.90;;;11.40;;
10491;SDS011;5293;51.464;-2.566;2022-11-12T11:17:32;15.40;;;8.90;;
10491;SDS011;5293;51.464;-2.566;2022-11-12T11:19:59;14.90;;;12.17;;
10491;SDS011;5293;51.464;-2.566;2022-11-12T11:23:09;11.57;;;6.57;;
10491;SDS011;5293;51.464;-2.566;2022-11-12T11:25:19;9.37;;;7.40;;
10491;SDS011;5293;51.464;-2.566;2022-11-12T11:27:56;16.13;;;12.37;;
10491;SDS011;5293;51.464;-2.566;2022-11-12T11:30:44;7.33;;;6.53;;
10491;SDS011;5293;51.464;-2.566;2022-11-12T11:33:25;7.10;;;5.13;;
10491;SDS011;5293;51.464;-2.566;2022-11-12T11:41:30;8.17;;;5.20;;
10491;SDS011;5293;51.464;-2.566;2022-11-12T11:55:32;6.90;;;6.07;;
10491;SDS011;5293;51.464;-2.566;2022-11-12T12:00:59;11.63;;;6.83;;
10491;SDS011;5293;51.464;-2.566;2022-11-12T12:11:29;9.33;;;5.87;;
10491;SDS011;5293;51.464;-2.566;2022-11-12T12:19:18;10.90;;;5.73;;
10491;SDS011;5293;51.464;-2.566;2022-11-12T12:21:52;7.33;;;4.60;;
10491;SDS011;5293;51.464;-2.566;2022-11-12T12:24:21;7.17;;;5.03;;
10491;SDS011;5293;51.464;-2.566;2022-11-12T12:27:14;5.80;;;4.83;;
10491;SDS011;5293;51.464;-2.566;2022-11-12T12:30:02;6.67;;;4.47;;
10491;SDS011;5293;51.464;-2.566;2022-11-12T12:35:49;6.80;;;4.50;;
10491;SDS011;5293;51.464;-2.566;2022-11-12T12:41:41;8.93;;;5.60;;
10491;SDS011;5293;51.464;-2.566;2022-11-12T12:44:18;8.37;;;4.47;;
10491;SDS011;5293;51.464;-2.566;2022-11-12T12:46:48;8.87;;;4.40;;
10491;SDS011;5293;51.464;-2.566;2022-11-12T12:49:21;6.80;;;4.27;;
10491;SDS011;5293;51.464;-2.566;2022-11-12T12:51:54;6.20;;;4.40;;
10491;SDS011;5293;51.464;-2.566;2022-11-12T12:57:04;6.73;;;4.30;;
10491;SDS011;5293;51.464;-2.566;2022-11-12T13:02:56;5.97;;;3.87;;
10491;SDS011;5293;51.464;-2.566;2022-11-12T13:05:33;10.63;;;4.27;;
10491;SDS011;5293;51.464;-2.566;2022-11-12T13:08:05;7.67;;;4.10;;
10491;SDS011;5293;51.464;-2.566;2022-11-12T13:13:07;6.50;;;4.10;;
10491;SDS011;5293;51.464;-2.566;2022-11-12T13:15:53;9.53;;;4.03;;
10491;SDS011;5293;51.464;-2.566;2022-11-12T13:21:14;7.80;;;4.03;;
10491;SDS011;5293;51.464;-2.566;2022-11-12T13:23:43;7.23;;;4.00;;
10491;SDS011;5293;51.464;-2.566;2022-11-12T13:26:49;5.43;;;3.83;;
10491;SDS011;5293;51.464;-2.566;2022-11-12T13:29:18;5.03;;;3.77;;
10491;SDS011;5293;51.464;-2.566;2022-11-12T13:35:18;6.50;;;3.17;;
10491;SDS011;5293;51.464;-2.566;2022-11-12T13:43:22;7.93;;;3.40;;
10491;SDS011;5293;51.464;-2.566;2022-11-12T13:45:52;6.87;;;3.50;;
10491;SDS011;5293;51.464;-2.566;2022-11-12T13:48:23;7.07;;;3.33;;
10491;SDS011;5293;51.464;-2.566;2022-11-12T13:51:02;6.37;;;3.30;;
10491;SDS011;5293;51.464;-2.566;2022-11-12T13:53:31;6.67;;;3.57;;
10491;SDS011;5293;51.464;-2.566;2022-11-12T13:55:57;9.20;;;3.77;;
10491;SDS011;5293;51.464;-2.566;2022-11-12T13:58:30;5.23;;;3.03;;
10491;SDS011;5293;51.464;-2.566;2022-11-12T14:01:01;7.37;;;3.10;;
10491;SDS011;5293;51.464;-2.566;2022-11-12T14:03:30;6.30;;;3.17;;
10491;SDS011;5293;51.464;-2.566;2022-11-12T14:06:27;5.30;;;2.87;;
10491;SDS011;5293;51.464;-2.566;2022-11-12T14:17:46;5.47;;;3.27;;
10491;SDS011;5293;51.464;-2.566;2022-11-12T14:23:12;5.83;;;2.83;;
10491;SDS011;5293;51.464;-2.566;2022-11-12T14:25:49;7.23;;;3.30;;
10491;SDS011;5293;51.464;-2.566;2022-11-12T14:30:55;5.20;;;3.27;;
10491;SDS011;5293;51.464;-2.566;2022-11-12T14:33:23;4.93;;;3.13;;
10491;SDS011;5293;51.464;-2.566;2022-11-12T14:35:51;4.73;;;3.03;;
10491;SDS011;5293;51.464;-2.566;2022-11-12T14:38:26;7.33;;;3.93;;
10491;SDS011;5293;51.464;-2.566;2022-11-12T14:40:58;7.03;;;3.60;;
10491;SDS011;5293;51.464;-2.566;2022-11-12T14:43:31;7.93;;;3.73;;
10491;SDS011;5293;51.464;-2.566;2022-11-12T14:46:02;4.57;;;3.00;;
10491;SDS011;5293;51.464;-2.566;2022-11-12T14:48:32;5.07;;;2.90;;
10491;SDS011;5293;51.464;-2.566;2022-11-12T14:51:03;6.30;;;3.00;;
10491;SDS011;5293;51.464;-2.566;2022-11-12T14:53:36;4.37;;;3.67;;
10491;SDS011;5293;51.464;-2.566;2022-11-12T14:56:05;7.03;;;3.57;;
10491;SDS011;5293;51.464;-2.566;2022-11-12T14:58:32;4.87;;;3.90;;
10491;SDS011;5293;51.464;-2.566;2022-11-12T15:01:15;7.90;;;3.73;;
10491;SDS011;5293;51.464;-2.566;2022-11-12T15:04:02;8.07;;;3.83;;
10491;SDS011;5293;51.464;-2.566;2022-11-12T15:06:52;7.20;;;4.23;;
10491;SDS011;5293;51.464;-2.566;2022-11-12T15:09:25;6.23;;;3.50;;
10491;SDS011;5293;51.464;-2.566;2022-11-12T15:11:57;8.63;;;4.00;;
10491;SDS011;5293;51.464;-2.566;2022-11-12T15:14:23;10.87;;;4.80;;
10491;SDS011;5293;51.464;-2.566;2022-11-12T15:16:49;7.47;;;4.33;;
10491;SDS011;5293;51.464;-2.566;2022-11-12T15:19:17;6.93;;;4.63;;
10491;SDS011;5293;51.464;-2.566;2022-11-12T15:21:45;7.50;;;4.37;;
10491;SDS011;5293;51.464;-2.566;2022-11-12T15:24:18;9.80;;;3.93;;
10491;SDS011;5293;51.464;-2.566;2022-11-12T15:27:25;5.97;;;3.90;;
10491;SDS011;5293;51.464;-2.566;2022-11-12T15:30:11;8.63;;;4.10;;
10491;SDS011;5293;51.464;-2.566;2022-11-12T15:32:43;8.53;;;4.00;;
10491;SDS011;5293;51.464;-2.566;2022-11-12T15:35:19;5.50;;;3.80;;
10491;SDS011;5293;51.464;-2.566;2022-11-12T15:37:51;7.90;;;3.63;;
10491;SDS011;5293;51.464;-2.566;2022-11-12T15:40:18;3.90;;;3.33;;
10491;SDS011;5293;51.464;-2.566;2022-11-12T15:42:45;8.57;;;3.90;;
10491;SDS011;5293;51.464;-2.566;2022-11-12T15:45:16;9.57;;;4.43;;
10491;SDS011;5293;51.464;-2.566;2022-11-12T15:47:43;8.60;;;4.13;;
10491;SDS011;5293;51.464;-2.566;2022-11-12T15:52:38;8.43;;;3.50;;
10491;SDS011;5293;51.464;-2.566;2022-11-12T15:55:05;6.00;;;3.40;;
10491;SDS011;5293;51.464;-2.566;2022-11-12T15:57:31;5.33;;;3.07;;
10491;SDS011;5293;51.464;-2.566;2022-11-12T16:00:03;4.30;;;3.17;;
10491;SDS011;5293;51.464;-2.566;2022-11-12T16:02:40;6.60;;;3.60;;
10491;SDS011;5293;51.464;-2.566;2022-11-12T16:05:16;8.23;;;3.83;;
10491;SDS011;5293;51.464;-2.566;2022-11-12T16:07:43;8.13;;;3.50;;
10491;SDS011;5293;51.464;-2.566;2022-11-12T16:10:15;8.17;;;3.50;;
10491;SDS011;5293;51.464;-2.566;2022-11-12T16:12:42;9.27;;;3.57;;
10491;SDS011;5293;51.464;-2.566;2022-11-12T16:15:15;5.40;;;2.97;;
10491;SDS011;5293;51.464;-2.566;2022-11-12T16:17:46;7.20;;;3.47;;
10491;SDS011;5293;51.464;-2.566;2022-11-12T16:20:19;6.67;;;3.50;;
10491;SDS011;5293;51.464;-2.566;2022-11-12T16:22:47;8.80;;;2.90;;
10491;SDS011;5293;51.464;-2.566;2022-11-12T16:25:14;6.87;;;3.30;;
10491;SDS011;5293;51.464;-2.566;2022-11-12T16:27:40;6.50;;;3.40;;
10491;SDS011;5293;51.464;-2.566;2022-11-12T16:30:11;5.90;;;3.10;;
10491;SDS011;5293;51.464;-2.566;2022-11-12T16:32:41;7.60;;;4.23;;
10491;SDS011;5293;51.464;-2.566;2022-11-12T16:35:08;6.83;;;3.73;;
10491;SDS011;5293;51.464;-2.566;2022-11-12T16:37:34;6.47;;;4.00;;
10491;SDS011;5293;51.464;-2.566;2022-11-12T16:40:02;6.43;;;3.20;;
10491;SDS011;5293;51.464;-2.566;2022-11-12T16:42:29;4.13;;;3.20;;